Time;durP1;ratioP1;P1;durP2;ratioP2;P2;SDS_P1;SDS_P2;PMS_P1;PMS_P2;Temp;Humidity;BMP_temperature;BMP_pressure;BME280_temperature;BME280_humidity;BME280_pressure;Samples;Min_cycle;Max_cycle;Signal;HPM_P1;HPM_P2
2022/06/09 00:01:25;;;;;;;50.77;24.33;;;;;;;;;;5015464;28;20037;-69
2022/06/09 00:03:56;;;;;;;57.63;22.60;;;;;;;;;;5015216;28;20030;-69
2022/06/09 00:06:23;;;;;;;54.65;24.75;;;;;;;;;;5018076;28;20103;-69
2022/06/09 00:08:49;;;;;;;61.80;24.20;;;;;;;;;;5015180;28;20071;-69
2022/06/09 00:11:17;;;;;;;52.50;24.73;;;;;;;;;;5015145;28;21256;-69
2022/06/09 00:13:43;;;;;;;59.20;26.00;;;;;;;;;;5016993;28;20210;-69
2022/06/09 00:16:10;;;;;;;58.20;24.67;;;;;;;;;;5016646;28;20025;-69
2022/06/09 00:18:35;;;;;;;55.53;24.57;;;;;;;;;;5016786;28;20032;-69
2022/06/09 00:21:01;;;;;;;59.13;26.30;;;;;;;;;;5018219;28;20029;-69
2022/06/09 00:23:26;;;;;;;62.43;26.10;;;;;;;;;;5018531;28;20053;-69
2022/06/09 00:25:52;;;;;;;61.73;25.63;;;;;;;;;;5019013;28;20021;-69
2022/06/09 00:28:18;;;;;;;59.70;26.13;;;;;;;;;;5019666;28;20022;-69
2022/06/09 00:30:43;;;;;;;58.97;25.20;;;;;;;;;;5021647;28;20120;-69
2022/06/09 00:33:08;;;;;;;65.67;26.23;;;;;;;;;;5015684;28;20022;-69
2022/06/09 00:35:34;;;;;;;61.37;26.03;;;;;;;;;;5018018;28;20100;-69
2022/06/09 00:37:59;;;;;;;61.63;24.87;;;;;;;;;;5018704;28;20033;-69
2022/06/09 00:40:24;;;;;;;56.93;24.67;;;;;;;;;;5018691;28;20075;-69
2022/06/09 00:42:50;;;;;;;57.50;25.70;;;;;;;;;;5019103;28;20354;-69
2022/06/09 00:45:24;;;;;;;61.47;26.27;;;;;;;;;;5020136;28;20064;-69
2022/06/09 00:47:50;;;;;;;63.33;25.77;;;;;;;;;;5019917;28;20101;-69
2022/06/09 00:50:16;;;;;;;67.30;27.63;;;;;;;;;;5019783;28;20022;-69
2022/06/09 00:52:45;;;;;;;61.13;26.77;;;;;;;;;;5017700;28;20026;-69
2022/06/09 00:55:16;;;;;;;67.83;27.33;;;;;;;;;;5021730;28;20028;-69
2022/06/09 00:57:44;;;;;;;62.53;25.85;;;;;;;;;;5019421;28;20017;-69
2022/06/09 01:00:12;;;;;;;62.23;28.03;;;;;;;;;;5018580;28;20029;-69
2022/06/09 01:02:38;;;;;;;64.43;28.47;;;;;;;;;;5018193;28;20025;-68
2022/06/09 01:05:05;;;;;;;66.40;28.37;;;;;;;;;;5020353;28;20025;-67
2022/06/09 01:07:33;;;;;;;69.97;29.57;;;;;;;;;;5019647;28;20128;-67
2022/06/09 01:09:58;;;;;;;67.80;27.67;;;;;;;;;;5018695;28;20474;-67
2022/06/09 01:12:28;;;;;;;70.97;29.73;;;;;;;;;;5017079;28;20559;-67
2022/06/09 01:15:04;;;;;;;66.17;28.17;;;;;;;;;;5019778;28;20048;-67
2022/06/09 01:17:35;;;;;;;57.77;26.40;;;;;;;;;;5013956;28;20025;-67
2022/06/09 01:20:00;;;;;;;63.10;28.60;;;;;;;;;;5018595;28;20515;-67
2022/06/09 01:22:44;;;;;;;61.30;27.63;;;;;;;;;;5014141;28;20291;-67
2022/06/09 01:25:28;;;;;;;67.77;28.93;;;;;;;;;;5018198;28;20021;-67
2022/06/09 01:28:02;;;;;;;61.77;28.30;;;;;;;;;;5017269;28;20017;-67
2022/06/09 01:30:47;;;;;;;64.70;27.20;;;;;;;;;;5013726;28;20049;-67
2022/06/09 01:33:18;;;;;;;63.20;28.03;;;;;;;;;;5020772;28;20044;-67
2022/06/09 01:35:47;;;;;;;61.80;28.67;;;;;;;;;;5017337;28;20095;-67
2022/06/09 01:38:12;;;;;;;68.70;29.67;;;;;;;;;;5018110;28;20547;-67
2022/06/09 01:40:37;;;;;;;64.53;28.07;;;;;;;;;;5017931;28;20029;-67
2022/06/09 01:43:05;;;;;;;59.67;27.13;;;;;;;;;;5017379;28;20886;-67
2022/06/09 01:45:39;;;;;;;64.53;29.87;;;;;;;;;;5016119;28;20030;-67
2022/06/09 01:48:06;;;;;;;62.10;29.67;;;;;;;;;;5018735;28;20485;-67
2022/06/09 01:50:50;;;;;;;60.43;27.33;;;;;;;;;;5017901;28;20104;-67
2022/06/09 01:53:19;;;;;;;58.80;28.90;;;;;;;;;;5019205;28;20549;-67
2022/06/09 01:55:46;;;;;;;60.00;28.63;;;;;;;;;;5018214;28;20104;-67
2022/06/09 01:58:13;;;;;;;65.47;29.20;;;;;;;;;;5015864;28;20065;-67
2022/06/09 02:00:39;;;;;;;65.73;29.47;;;;;;;;;;5015236;28;20045;-67
2022/06/09 02:03:04;;;;;;;63.23;29.30;;;;;;;;;;5017944;28;20497;-67
2022/06/09 02:05:32;;;;;;;62.33;29.33;;;;;;;;;;5019083;28;20033;-67
2022/06/09 02:07:59;;;;;;;63.43;30.20;;;;;;;;;;5017696;28;20500;-67
2022/06/09 02:10:27;;;;;;;57.60;28.03;;;;;;;;;;5019075;28;20619;-67
2022/06/09 02:12:52;;;;;;;59.63;29.87;;;;;;;;;;5018341;28;20071;-67
2022/06/09 02:15:21;;;;;;;61.43;28.80;;;;;;;;;;5015841;28;20037;-70
2022/06/09 02:17:48;;;;;;;59.77;27.77;;;;;;;;;;5019165;28;20109;-70
2022/06/09 02:20:14;;;;;;;58.15;28.00;;;;;;;;;;5016202;28;20021;-70
2022/06/09 02:22:39;;;;;;;54.40;28.27;;;;;;;;;;5017884;28;20029;-70
2022/06/09 02:25:05;;;;;;;58.60;28.57;;;;;;;;;;5014370;28;20382;-70
2022/06/09 02:27:30;;;;;;;52.65;26.00;;;;;;;;;;5016484;28;20033;-70
2022/06/09 02:29:55;;;;;;;57.63;27.50;;;;;;;;;;5018022;28;20580;-70
2022/06/09 02:32:21;;;;;;;56.17;26.47;;;;;;;;;;5014464;28;20033;-70
2022/06/09 02:34:46;;;;;;;56.73;28.13;;;;;;;;;;5015194;28;20033;-70
2022/06/09 02:37:11;;;;;;;57.92;27.35;;;;;;;;;;5016037;28;20033;-70
2022/06/09 02:39:36;;;;;;;51.10;24.37;;;;;;;;;;5015024;28;20040;-70
2022/06/09 02:42:02;;;;;;;49.37;25.00;;;;;;;;;;5017478;28;20485;-70
2022/06/09 02:44:28;;;;;;;47.17;25.57;;;;;;;;;;5014765;28;20034;-70
2022/06/09 02:46:53;;;;;;;50.33;26.50;;;;;;;;;;5014965;28;20092;-70
2022/06/09 02:49:18;;;;;;;52.80;26.07;;;;;;;;;;5016383;28;20025;-70
2022/06/09 02:51:43;;;;;;;55.10;27.30;;;;;;;;;;5017765;28;20473;-70
2022/06/09 02:54:12;;;;;;;55.97;26.57;;;;;;;;;;5015735;28;20026;-70
2022/06/09 02:56:37;;;;;;;56.13;26.63;;;;;;;;;;5018023;28;20125;-70
2022/06/09 02:59:02;;;;;;;53.80;26.97;;;;;;;;;;5016472;28;20116;-70
2022/06/09 03:01:29;;;;;;;54.03;26.13;;;;;;;;;;5015859;28;20026;-70
2022/06/09 03:03:54;;;;;;;47.38;25.45;;;;;;;;;;5015756;28;20115;-70
2022/06/09 03:06:20;;;;;;;50.20;26.37;;;;;;;;;;5017536;28;20083;-70
2022/06/09 03:08:45;;;;;;;49.75;24.98;;;;;;;;;;5016235;28;20105;-70
2022/06/09 03:11:11;;;;;;;50.73;25.90;;;;;;;;;;5015659;28;20033;-70
2022/06/09 03:13:37;;;;;;;53.53;27.02;;;;;;;;;;5017212;28;20025;-70
2022/06/09 03:16:02;;;;;;;58.23;26.03;;;;;;;;;;5016028;28;20474;-70
2022/06/09 03:18:27;;;;;;;61.60;27.23;;;;;;;;;;5016942;28;20092;-70
2022/06/09 03:20:53;;;;;;;46.70;24.70;;;;;;;;;;5016019;28;21340;-70
2022/06/09 03:23:18;;;;;;;58.23;27.00;;;;;;;;;;5015938;28;20693;-70
2022/06/09 03:25:43;;;;;;;53.27;26.97;;;;;;;;;;5018144;28;20078;-70
2022/06/09 03:28:09;;;;;;;54.20;25.77;;;;;;;;;;5015513;28;20104;-70
2022/06/09 03:30:35;;;;;;;48.83;26.57;;;;;;;;;;5015409;28;20196;-70
2022/06/09 03:33:00;;;;;;;56.80;25.37;;;;;;;;;;5015333;28;20476;-69
2022/06/09 03:35:26;;;;;;;48.77;24.80;;;;;;;;;;5015974;28;20037;-70
2022/06/09 03:37:51;;;;;;;58.50;26.90;;;;;;;;;;5017462;28;20100;-70
2022/06/09 03:40:18;;;;;;;53.87;25.93;;;;;;;;;;5016978;28;20033;-70
2022/06/09 03:42:43;;;;;;;48.15;25.55;;;;;;;;;;5017166;28;20048;-70
2022/06/09 03:45:09;;;;;;;49.37;24.97;;;;;;;;;;5014917;28;20026;-70
2022/06/09 03:47:35;;;;;;;49.80;23.38;;;;;;;;;;5013508;28;20030;-70
2022/06/09 03:50:00;;;;;;;50.03;24.17;;;;;;;;;;5014376;28;20694;-70
2022/06/09 03:52:25;;;;;;;47.05;23.40;;;;;;;;;;5017298;28;20386;-70
2022/06/09 03:54:51;;;;;;;45.03;24.00;;;;;;;;;;5017827;28;20034;-70
2022/06/09 03:57:16;;;;;;;42.07;22.23;;;;;;;;;;5020928;28;20561;-70
2022/06/09 03:59:41;;;;;;;47.03;23.97;;;;;;;;;;5018082;28;20513;-70
2022/06/09 04:02:07;;;;;;;45.63;22.17;;;;;;;;;;5019852;28;20029;-70
2022/06/09 04:04:32;;;;;;;49.63;22.67;;;;;;;;;;5018332;28;20060;-70
2022/06/09 04:06:58;;;;;;;40.87;22.00;;;;;;;;;;5019452;28;20397;-70
2022/06/09 04:09:23;;;;;;;42.07;21.30;;;;;;;;;;5019416;28;20029;-70
2022/06/09 04:11:48;;;;;;;40.43;20.37;;;;;;;;;;5019977;28;20033;-70
2022/06/09 04:14:14;;;;;;;36.00;18.27;;;;;;;;;;5018758;28;20096;-70
2022/06/09 04:16:41;;;;;;;38.87;17.13;;;;;;;;;;5019581;28;20044;-70
2022/06/09 04:19:10;;;;;;;32.57;18.83;;;;;;;;;;5020653;28;20033;-70
2022/06/09 04:21:36;;;;;;;35.50;17.87;;;;;;;;;;5017020;28;20029;-69
2022/06/09 04:24:01;;;;;;;36.13;17.60;;;;;;;;;;5020158;28;20074;-70
2022/06/09 04:26:28;;;;;;;38.20;19.43;;;;;;;;;;5020827;28;20021;-70
2022/06/09 04:28:53;;;;;;;38.17;19.08;;;;;;;;;;5020047;28;20091;-70
2022/06/09 04:31:19;;;;;;;40.50;20.37;;;;;;;;;;5015758;28;20151;-70
2022/06/09 04:33:44;;;;;;;40.20;19.20;;;;;;;;;;5019259;28;20497;-70
2022/06/09 04:36:10;;;;;;;43.50;21.97;;;;;;;;;;5014680;28;20029;-70
2022/06/09 04:38:36;;;;;;;38.23;19.73;;;;;;;;;;5020448;28;20087;-70
2022/06/09 04:41:02;;;;;;;36.65;20.10;;;;;;;;;;5018410;28;20026;-70
2022/06/09 04:43:28;;;;;;;41.37;20.03;;;;;;;;;;5019156;28;20017;-70
2022/06/09 04:45:53;;;;;;;35.67;20.38;;;;;;;;;;5017426;28;20045;-70
2022/06/09 04:48:18;;;;;;;36.42;19.73;;;;;;;;;;5018447;28;20025;-70
2022/06/09 04:50:43;;;;;;;44.00;26.23;;;;;;;;;;5020720;28;20029;-70
2022/06/09 04:53:09;;;;;;;42.00;19.73;;;;;;;;;;5019267;28;20033;-70
2022/06/09 04:55:39;;;;;;;36.53;19.75;;;;;;;;;;5020112;28;20240;-70
2022/06/09 04:58:04;;;;;;;34.17;19.08;;;;;;;;;;5019619;28;20473;-70
2022/06/09 05:00:30;;;;;;;37.57;19.37;;;;;;;;;;5018339;28;20684;-70
2022/06/09 05:02:56;;;;;;;32.92;17.42;;;;;;;;;;5010866;28;20481;-70
2022/06/09 05:05:35;;;;;;;34.22;16.63;;;;;;;;;;5018105;28;20026;-70
2022/06/09 05:08:00;;;;;;;39.63;18.25;;;;;;;;;;5010377;28;20148;-70
2022/06/09 05:10:27;;;;;;;33.88;17.65;;;;;;;;;;5011248;28;20024;-70
2022/06/09 05:12:53;;;;;;;33.42;17.20;;;;;;;;;;5018395;28;20513;-70
2022/06/09 05:15:19;;;;;;;28.02;15.77;;;;;;;;;;5018196;28;20045;-71
2022/06/09 05:17:45;;;;;;;35.75;16.63;;;;;;;;;;5018259;28;20508;-70
2022/06/09 05:20:14;;;;;;;26.60;15.45;;;;;;;;;;5017575;28;20052;-70
2022/06/09 05:22:39;;;;;;;30.50;16.30;;;;;;;;;;5017551;28;20116;-70
2022/06/09 05:25:06;;;;;;;32.67;15.00;;;;;;;;;;5019317;28;20495;-70
2022/06/09 05:27:32;;;;;;;26.92;14.23;;;;;;;;;;5018346;28;20526;-70
2022/06/09 05:29:57;;;;;;;34.63;15.48;;;;;;;;;;5020084;28;20051;-70
2022/06/09 05:32:23;;;;;;;25.35;12.73;;;;;;;;;;5027225;28;20029;-70
2022/06/09 05:34:49;;;;;;;25.20;12.32;;;;;;;;;;5031338;28;20197;-70
2022/06/09 05:37:15;;;;;;;29.55;12.77;;;;;;;;;;5029837;28;20435;-70
2022/06/09 05:45:09;;;;;;;21.08;10.88;;;;;;;;;;5012715;28;20485;-70
2022/06/09 05:47:34;;;;;;;21.92;10.13;;;;;;;;;;5019295;28;20026;-70
2022/06/09 05:49:59;;;;;;;22.23;10.90;;;;;;;;;;5017061;28;20057;-70
2022/06/09 05:52:28;;;;;;;19.05;9.80;;;;;;;;;;5027907;28;20112;-70
2022/06/09 05:54:53;;;;;;;23.45;10.13;;;;;;;;;;5024172;28;20490;-70
2022/06/09 05:57:19;;;;;;;22.85;10.27;;;;;;;;;;5012253;28;20040;-70
2022/06/09 05:59:44;;;;;;;23.67;11.05;;;;;;;;;;5029113;28;20087;-70
2022/06/09 06:02:09;;;;;;;24.20;10.52;;;;;;;;;;5029042;28;20049;-70
2022/06/09 06:04:35;;;;;;;16.98;10.27;;;;;;;;;;5030173;28;20018;-70
2022/06/09 06:07:00;;;;;;;20.48;10.25;;;;;;;;;;5017829;28;20578;-70
2022/06/09 06:09:26;;;;;;;21.17;10.63;;;;;;;;;;5014673;28;20017;-70
2022/06/09 06:11:51;;;;;;;23.83;11.13;;;;;;;;;;5019802;28;20021;-70
2022/06/09 06:14:17;;;;;;;16.63;9.10;;;;;;;;;;5023715;28;20057;-70
2022/06/09 06:16:42;;;;;;;20.95;11.32;;;;;;;;;;5026801;28;20060;-70
2022/06/09 06:19:10;;;;;;;19.55;10.20;;;;;;;;;;5031563;28;20500;-70
2022/06/09 06:21:36;;;;;;;18.75;10.05;;;;;;;;;;5030994;28;20537;-70
2022/06/09 06:24:03;;;;;;;19.58;10.02;;;;;;;;;;5025368;28;20049;-70
2022/06/09 06:26:29;;;;;;;18.88;9.40;;;;;;;;;;5028412;28;20017;-70
2022/06/09 06:28:54;;;;;;;17.33;10.05;;;;;;;;;;5028986;28;20156;-70
2022/06/09 06:31:19;;;;;;;19.65;10.02;;;;;;;;;;5016730;28;20038;-70
2022/06/09 06:33:44;;;;;;;20.80;10.25;;;;;;;;;;5025784;28;20028;-70
2022/06/09 06:36:10;;;;;;;20.45;10.43;;;;;;;;;;5014086;28;20033;-70
2022/06/09 06:38:36;;;;;;;19.08;10.43;;;;;;;;;;5029743;28;20033;-70
2022/06/09 06:41:03;;;;;;;18.70;10.02;;;;;;;;;;5027765;28;20113;-70
2022/06/09 06:43:28;;;;;;;20.52;10.35;;;;;;;;;;5029186;28;20106;-70
2022/06/09 06:45:53;;;;;;;22.08;11.05;;;;;;;;;;5025588;28;20482;-70
2022/06/09 06:48:18;;;;;;;18.55;9.73;;;;;;;;;;5028595;28;20363;-70
2022/06/09 06:50:44;;;;;;;17.85;10.40;;;;;;;;;;5029676;28;20060;-70
2022/06/09 06:53:12;;;;;;;18.60;10.30;;;;;;;;;;5022244;28;20518;-70
2022/06/09 06:55:37;;;;;;;24.13;11.20;;;;;;;;;;5017524;28;20024;-70
2022/06/09 06:58:03;;;;;;;19.63;11.60;;;;;;;;;;5020612;28;20030;-70
2022/06/09 07:00:28;;;;;;;21.15;10.73;;;;;;;;;;5022079;28;20452;-70
2022/06/09 07:02:53;;;;;;;23.27;11.40;;;;;;;;;;5011183;28;20022;-70
2022/06/09 07:05:19;;;;;;;23.48;12.10;;;;;;;;;;5025368;28;20537;-70
2022/06/09 07:07:44;;;;;;;20.98;11.45;;;;;;;;;;5029723;28;20421;-70
2022/06/09 07:10:10;;;;;;;23.27;12.15;;;;;;;;;;5027422;28;20029;-70
2022/06/09 07:12:36;;;;;;;22.98;12.65;;;;;;;;;;5018256;28;20084;-70
2022/06/09 07:15:02;;;;;;;21.08;12.02;;;;;;;;;;5027107;28;20029;-70
2022/06/09 07:17:27;;;;;;;31.40;13.15;;;;;;;;;;5029489;28;20470;-70
2022/06/09 07:19:52;;;;;;;22.02;12.60;;;;;;;;;;5022839;28;20030;-70
2022/06/09 07:22:19;;;;;;;32.20;13.40;;;;;;;;;;5022340;28;20114;-70
2022/06/09 07:24:44;;;;;;;26.67;12.70;;;;;;;;;;5023783;28;20029;-70
2022/06/09 07:27:10;;;;;;;24.90;13.60;;;;;;;;;;5031423;28;20021;-70
2022/06/09 07:29:35;;;;;;;29.13;13.50;;;;;;;;;;5022233;28;20017;-70
2022/06/09 07:32:00;;;;;;;21.45;12.82;;;;;;;;;;5033968;28;20394;-70
2022/06/09 07:34:26;;;;;;;22.58;12.85;;;;;;;;;;5035309;28;20033;-70
2022/06/09 07:36:51;;;;;;;25.52;13.27;;;;;;;;;;5027073;28;20384;-70
2022/06/09 07:39:16;;;;;;;25.50;12.82;;;;;;;;;;5035593;28;20024;-71
2022/06/09 07:41:42;;;;;;;25.98;13.57;;;;;;;;;;5027147;28;20021;-70
2022/06/09 07:44:08;;;;;;;19.73;11.35;;;;;;;;;;5034909;28;20041;-71
2022/06/09 07:46:33;;;;;;;21.27;12.93;;;;;;;;;;5026856;28;20014;-70
2022/06/09 07:48:59;;;;;;;22.67;12.38;;;;;;;;;;5029022;28;20423;-70
2022/06/09 07:51:26;;;;;;;20.05;11.73;;;;;;;;;;5030642;28;20466;-70
2022/06/09 07:53:52;;;;;;;25.00;12.75;;;;;;;;;;5024938;28;20458;-71
2022/06/09 07:56:17;;;;;;;19.00;11.15;;;;;;;;;;5028808;28;20396;-71
2022/06/09 07:58:43;;;;;;;22.25;12.13;;;;;;;;;;5033711;28;20022;-71
2022/06/09 08:01:10;;;;;;;22.52;12.73;;;;;;;;;;5026783;28;20075;-71
2022/06/09 08:03:36;;;;;;;19.88;11.88;;;;;;;;;;5014876;28;20072;-71
2022/06/09 08:06:01;;;;;;;23.98;11.45;;;;;;;;;;5030792;28;20096;-71
2022/06/09 08:08:26;;;;;;;20.50;10.43;;;;;;;;;;5032278;28;20036;-71
2022/06/09 08:10:52;;;;;;;17.27;9.98;;;;;;;;;;5028464;28;20030;-72
2022/06/09 08:13:17;;;;;;;21.52;11.00;;;;;;;;;;5014703;28;20030;-72
2022/06/09 08:15:43;;;;;;;23.58;11.48;;;;;;;;;;5019087;28;20056;-72
2022/06/09 08:18:09;;;;;;;15.88;11.02;;;;;;;;;;5021192;28;20021;-72
2022/06/09 08:20:36;;;;;;;22.63;11.63;;;;;;;;;;5021946;28;20393;-71
2022/06/09 08:23:01;;;;;;;16.58;11.13;;;;;;;;;;5033868;28;20021;-72
2022/06/09 08:25:26;;;;;;;19.50;10.82;;;;;;;;;;5034327;28;20501;-72
2022/06/09 08:27:52;;;;;;;17.23;10.82;;;;;;;;;;5028616;28;20109;-72
2022/06/09 08:30:17;;;;;;;18.45;10.98;;;;;;;;;;5031254;28;20028;-72
2022/06/09 08:32:42;;;;;;;17.70;10.77;;;;;;;;;;5017357;28;20033;-72
2022/06/09 08:35:10;;;;;;;24.48;11.10;;;;;;;;;;5014692;28;20386;-72
2022/06/09 08:37:36;;;;;;;19.33;9.75;;;;;;;;;;5021549;28;20009;-73
2022/06/09 08:40:03;;;;;;;22.63;10.82;;;;;;;;;;5030658;28;20017;-72
2022/06/09 08:42:57;;;;;;;24.27;11.63;;;;;;;;;;5028059;28;20078;-72
2022/06/09 08:45:31;;;;;;;19.45;11.10;;;;;;;;;;5027008;28;20030;-72
2022/06/09 08:47:58;;;;;;;17.90;10.88;;;;;;;;;;5023160;28;20026;-72
2022/06/09 08:50:24;;;;;;;24.05;9.93;;;;;;;;;;5027274;28;20014;-72
2022/06/09 08:52:49;;;;;;;20.02;9.30;;;;;;;;;;5023441;28;20369;-72
2022/06/09 08:55:20;;;;;;;13.55;7.40;;;;;;;;;;5026824;28;20143;-72
2022/06/09 08:57:46;;;;;;;16.88;6.72;;;;;;;;;;5019594;28;20018;-69
2022/06/09 09:00:13;;;;;;;12.23;6.45;;;;;;;;;;5014655;28;20437;-69
2022/06/09 09:02:42;;;;;;;14.20;6.82;;;;;;;;;;5018841;28;20018;-70
2022/06/09 09:05:12;;;;;;;13.88;6.05;;;;;;;;;;5013833;28;20036;-71
2022/06/09 09:07:42;;;;;;;11.27;5.57;;;;;;;;;;5023566;28;20063;-70
2022/06/09 09:10:19;;;;;;;11.55;5.93;;;;;;;;;;5032741;28;20120;-70
2022/06/09 09:12:44;;;;;;;12.05;5.53;;;;;;;;;;5021852;28;20036;-71
2022/06/09 09:15:16;;;;;;;13.18;6.07;;;;;;;;;;5031423;28;20029;-71
2022/06/09 09:18:08;;;;;;;11.68;6.70;;;;;;;;;;5033038;28;20036;-71
2022/06/09 09:20:33;;;;;;;;;;;;;;;;;;5029675;28;20029;-71
2022/06/09 09:23:12;;;;;;;14.63;6.90;;;;;;;;;;5031913;28;19911;-70
2022/06/09 09:25:40;;;;;;;10.88;5.68;;;;;;;;;;5026713;28;20276;-70
2022/06/09 09:28:18;;;;;;;12.52;5.40;;;;;;;;;;5028972;28;20529;-71
2022/06/09 09:30:49;;;;;;;10.48;5.85;;;;;;;;;;5024031;28;20544;-70
2022/06/09 09:33:18;;;;;;;12.65;5.25;;;;;;;;;;5032867;28;20067;-70
2022/06/09 09:35:45;;;;;;;8.93;5.47;;;;;;;;;;5027392;28;20167;-72
2022/06/09 09:38:14;;;;;;;12.88;5.82;;;;;;;;;;5029891;28;20406;-72
2022/06/09 09:40:44;;;;;;;10.73;5.70;;;;;;;;;;5013456;28;20025;-72
2022/06/09 09:43:11;;;;;;;11.02;5.88;;;;;;;;;;5025124;28;20155;-72
2022/06/09 09:45:42;;;;;;;9.55;5.65;;;;;;;;;;5027863;28;20022;-72
2022/06/09 09:48:17;;;;;;;9.43;5.47;;;;;;;;;;5029948;28;20382;-72
2022/06/09 09:50:48;;;;;;;10.55;5.28;;;;;;;;;;5029830;28;20026;-72
2022/06/09 09:53:13;;;;;;;;;;;;;;;;;;5031919;28;20052;-71
2022/06/09 09:55:40;;;;;;;10.35;4.82;;;;;;;;;;5025712;28;19909;-72
2022/06/09 09:58:12;;;;;;;8.45;5.10;;;;;;;;;;5023145;28;20292;-72
2022/06/09 10:00:37;;;;;;;11.38;5.82;;;;;;;;;;5023535;28;20049;-72
2022/06/09 10:08:46;;;;;;;7.68;5.00;;;;;;;;;;5012581;28;20394;-72
2022/06/09 10:14:25;;;;;;;6.20;3.72;;;;;;;;;;5026855;28;20131;-72
2022/06/09 10:16:51;;;;;;;7.03;4.03;;;;;;;;;;5013307;28;20037;-72
2022/06/09 10:19:18;;;;;;;7.00;3.80;;;;;;;;;;5019583;28;20112;-72
2022/06/09 10:21:55;;;;;;;8.57;3.70;;;;;;;;;;5031606;28;20079;-72
2022/06/09 10:24:34;;;;;;;5.80;2.92;;;;;;;;;;5024104;28;20608;-72
2022/06/09 10:27:00;;;;;;;6.65;3.25;;;;;;;;;;5018470;28;20122;-72
2022/06/09 10:29:36;;;;;;;6.18;3.17;;;;;;;;;;5025626;28;20049;-72
2022/06/09 10:32:05;;;;;;;14.65;4.13;;;;;;;;;;5029680;28;20037;-72
2022/06/09 10:34:43;;;;;;;6.07;3.03;;;;;;;;;;5032086;28;20113;-72
2022/06/09 10:37:08;;;;;;;4.82;2.10;;;;;;;;;;5031600;28;20493;-72
2022/06/09 10:39:36;;;;;;;4.68;1.92;;;;;;;;;;5031795;28;20025;-72
2022/06/09 10:42:17;;;;;;;4.82;2.17;;;;;;;;;;5020392;28;20108;-72
2022/06/09 10:44:52;;;;;;;7.13;2.40;;;;;;;;;;5031761;28;20049;-72
2022/06/09 10:56:04;;;;;;;5.93;2.42;;;;;;;;;;5021929;28;20028;-72
2022/06/09 10:58:36;;;;;;;5.70;2.20;;;;;;;;;;5029792;28;20393;-72
2022/06/09 11:01:03;;;;;;;6.47;2.22;;;;;;;;;;5016878;28;20041;-72
2022/06/09 11:03:30;;;;;;;5.15;2.00;;;;;;;;;;5011857;28;20085;-72
2022/06/09 11:06:04;;;;;;;5.05;1.80;;;;;;;;;;5014038;28;20025;-72
2022/06/09 11:08:45;;;;;;;3.95;1.90;;;;;;;;;;5011538;28;20026;-72
2022/06/09 11:11:10;;;;;;;6.60;3.05;;;;;;;;;;5024606;28;20037;-72
2022/06/09 11:13:38;;;;;;;8.02;3.40;;;;;;;;;;5029646;28;20120;-72
2022/06/09 11:16:06;;;;;;;5.15;2.95;;;;;;;;;;5028538;28;20029;-72
2022/06/09 11:18:34;;;;;;;6.65;2.47;;;;;;;;;;5031213;28;20021;-73
2022/06/09 11:21:08;;;;;;;6.30;2.10;;;;;;;;;;5025439;28;20029;-72
2022/06/09 11:23:46;;;;;;;5.82;2.40;;;;;;;;;;5030420;28;20013;-72
2022/06/09 11:26:27;;;;;;;4.18;2.25;;;;;;;;;;5031613;28;20014;-72
2022/06/09 11:28:52;;;;;;;;;;;;;;;;;;5031300;28;20026;-72
2022/06/09 11:31:20;;;;;;;5.07;2.42;;;;;;;;;;5020787;28;19910;-72
2022/06/09 11:34:04;;;;;;;8.55;2.40;;;;;;;;;;5011785;28;20382;-73
2022/06/09 11:37:07;;;;;;;4.55;2.15;;;;;;;;;;5021686;28;20024;-73
2022/06/09 11:39:33;;;;;;;6.50;2.00;;;;;;;;;;5018759;28;20089;-73
2022/06/09 11:41:58;;;;;;;4.05;1.77;;;;;;;;;;5021110;28;20059;-72
2022/06/09 11:44:26;;;;;;;4.32;1.92;;;;;;;;;;5025470;28;20429;-72
2022/06/09 11:46:53;;;;;;;3.90;1.60;;;;;;;;;;5014962;28;20422;-72
2022/06/09 11:49:24;;;;;;;6.35;2.08;;;;;;;;;;5020397;28;20080;-73
2022/06/09 11:51:49;;;;;;;;;;;;;;;;;;5025866;28;20500;-73
2022/06/09 11:54:46;;;;;;;3.55;1.15;;;;;;;;;;5011660;28;19910;-73
2022/06/09 11:57:24;;;;;;;4.65;1.35;;;;;;;;;;4979700;28;20038;-72
2022/06/09 12:00:01;;;;;;;8.10;1.98;;;;;;;;;;5023689;28;20170;-72
2022/06/09 12:02:31;;;;;;;4.90;1.30;;;;;;;;;;5011746;28;20580;-72
2022/06/09 12:04:57;;;;;;;4.38;1.23;;;;;;;;;;5020950;28;20609;-72
2022/06/09 12:07:40;;;;;;;3.70;1.15;;;;;;;;;;5020735;28;20030;-72
2022/06/09 12:10:18;;;;;;;6.10;1.50;;;;;;;;;;5012253;28;20064;-72
2022/06/09 12:12:45;;;;;;;3.30;1.10;;;;;;;;;;5021214;28;20104;-72
2022/06/09 12:15:19;;;;;;;2.53;1.00;;;;;;;;;;5026782;28;20549;-72
2022/06/09 12:18:06;;;;;;;6.00;1.20;;;;;;;;;;5032978;28;20055;-72
2022/06/09 12:20:47;;;;;;;5.00;1.45;;;;;;;;;;5024749;28;20505;-73
2022/06/09 12:23:24;;;;;;;2.45;1.10;;;;;;;;;;5034178;28;20049;-72
2022/06/09 12:26:21;;;;;;;5.50;1.40;;;;;;;;;;5027273;28;20351;-72
2022/06/09 12:28:49;;;;;;;4.82;1.38;;;;;;;;;;5024977;28;20037;-71
2022/06/09 12:31:16;;;;;;;6.18;1.75;;;;;;;;;;5032595;28;20109;-71
2022/06/09 12:33:48;;;;;;;6.90;1.52;;;;;;;;;;5034165;28;20013;-71
2022/06/09 12:36:28;;;;;;;10.55;2.40;;;;;;;;;;5032637;28;20029;-72
2022/06/09 12:38:56;;;;;;;5.25;1.70;;;;;;;;;;5021075;28;20376;-71
2022/06/09 12:41:25;;;;;;;6.30;2.08;;;;;;;;;;5014378;28;20467;-71
2022/06/09 12:43:57;;;;;;;6.53;2.25;;;;;;;;;;5025443;28;20209;-71
2022/06/09 12:46:23;;;;;;;5.70;2.20;;;;;;;;;;5022410;28;20030;-71
2022/06/09 12:48:49;;;;;;;12.68;2.63;;;;;;;;;;5015869;28;20025;-71
2022/06/09 12:51:29;;;;;;;4.60;1.90;;;;;;;;;;5022775;28;20065;-71
2022/06/09 12:53:56;;;;;;;5.97;1.00;;;;;;;;;;5014083;28;20026;-71
2022/06/09 12:56:42;;;;;;;4.85;1.20;;;;;;;;;;5015198;28;20442;-71
2022/06/09 12:59:16;;;;;;;6.00;1.20;;;;;;;;;;5014277;28;20105;-71
2022/06/09 13:01:49;;;;;;;2.55;0.82;;;;;;;;;;5033607;28;20078;-72
2022/06/09 13:04:15;;;;;;;3.58;1.00;;;;;;;;;;5022355;28;20047;-72
2022/06/09 13:06:40;;;;;;;7.43;1.08;;;;;;;;;;5034069;28;20033;-71
2022/06/09 13:09:19;;;;;;;7.78;1.10;;;;;;;;;;5034199;28;20017;-72
2022/06/09 13:14:31;;;;;;;14.20;1.70;;;;;;;;;;5020896;28;20401;-73
2022/06/09 13:16:59;;;;;;;4.53;1.10;;;;;;;;;;5014114;28;20104;-70
2022/06/09 13:19:27;;;;;;;6.30;1.10;;;;;;;;;;5013424;28;20021;-70
2022/06/09 13:21:52;;;;;;;3.80;1.00;;;;;;;;;;5013623;28;20084;-70
2022/06/09 13:24:26;;;;;;;5.20;1.30;;;;;;;;;;5028956;28;20026;-70
2022/06/09 13:26:52;;;;;;;3.22;1.00;;;;;;;;;;5033178;28;20105;-70
2022/06/09 13:29:21;;;;;;;4.25;1.27;;;;;;;;;;5031896;28;20104;-70
2022/06/09 13:31:48;;;;;;;4.18;1.02;;;;;;;;;;5033506;28;20022;-70
2022/06/09 13:34:13;;;;;;;7.95;1.20;;;;;;;;;;5023549;28;20088;-70
2022/06/09 13:36:42;;;;;;;6.57;1.00;;;;;;;;;;5015023;28;20022;-70
2022/06/09 13:39:25;;;;;;;4.60;1.02;;;;;;;;;;5017568;28;20080;-70
2022/06/09 13:41:52;;;;;;;9.75;1.25;;;;;;;;;;5032826;28;20029;-70
2022/06/09 13:44:26;;;;;;;5.60;1.05;;;;;;;;;;5031308;28;20017;-70
2022/06/09 13:46:57;;;;;;;5.03;0.93;;;;;;;;;;5030227;28;20025;-70
2022/06/09 13:49:22;;;;;;;;;;;;;;;;;;5024237;28;20079;-70
2022/06/09 13:52:02;;;;;;;3.15;0.80;;;;;;;;;;5017119;28;19917;-71
2022/06/09 13:54:27;;;;;;;5.60;0.98;;;;;;;;;;5030267;28;20018;-71
2022/06/09 13:56:52;;;;;;;4.75;0.93;;;;;;;;;;5022910;28;20036;-71
2022/06/09 13:59:18;;;;;;;5.03;1.00;;;;;;;;;;5014355;28;20498;-71
2022/06/09 14:01:44;;;;;;;3.85;1.00;;;;;;;;;;5030651;28;20033;-71
2022/06/09 14:04:11;;;;;;;4.88;0.90;;;;;;;;;;5013888;28;20025;-71
2022/06/09 14:06:36;;;;;;;8.43;1.00;;;;;;;;;;5025463;28;20402;-71
2022/06/09 14:09:01;;;;;;;7.22;0.70;;;;;;;;;;5029996;28;20035;-71
2022/06/09 14:11:28;;;;;;;5.47;1.08;;;;;;;;;;5021715;28;20164;-71
2022/06/09 14:13:55;;;;;;;4.95;0.93;;;;;;;;;;5029178;28;20049;-71
2022/06/09 14:16:23;;;;;;;6.85;1.00;;;;;;;;;;5019859;28;20504;-70
2022/06/09 14:18:48;;;;;;;5.25;0.95;;;;;;;;;;5013170;28;20053;-72
2022/06/09 14:21:13;;;;;;;4.65;0.90;;;;;;;;;;5013308;28;20419;-73
2022/06/09 14:23:38;;;;;;;8.95;0.98;;;;;;;;;;5013408;28;20351;-70
2022/06/09 14:26:06;;;;;;;10.20;0.90;;;;;;;;;;5015134;28;20382;-71
2022/06/09 14:28:32;;;;;;;3.35;0.80;;;;;;;;;;5025098;28;20120;-71
2022/06/09 14:30:57;;;;;;;5.65;0.82;;;;;;;;;;5029898;28;20033;-71
2022/06/09 14:33:23;;;;;;;5.10;0.95;;;;;;;;;;5031538;28;20072;-70
2022/06/09 14:35:48;;;;;;;5.85;1.00;;;;;;;;;;5031095;28;20029;-70
2022/06/09 14:38:14;;;;;;;6.20;1.05;;;;;;;;;;5031898;28;20643;-70
2022/06/09 14:40:41;;;;;;;5.10;0.80;;;;;;;;;;5028743;28;20021;-70
2022/06/09 14:43:07;;;;;;;4.40;0.90;;;;;;;;;;5019324;28;20024;-71
2022/06/09 14:45:33;;;;;;;2.13;0.63;;;;;;;;;;5030067;28;20026;-71
2022/06/09 14:47:59;;;;;;;5.28;1.45;;;;;;;;;;5015537;28;20022;-71
2022/06/09 14:50:25;;;;;;;12.25;1.10;;;;;;;;;;5015169;28;20022;-70
2022/06/09 14:52:50;;;;;;;3.00;1.00;;;;;;;;;;5018464;28;20064;-70
2022/06/09 14:55:16;;;;;;;3.78;0.70;;;;;;;;;;5019509;28;20026;-70
2022/06/09 14:57:42;;;;;;;5.55;0.70;;;;;;;;;;5029446;28;20104;-70
2022/06/09 15:00:14;;;;;;;4.20;0.85;;;;;;;;;;5029609;28;20494;-70